createdAt,value
2023-11-07T00:02:25.724Z,67.13
2023-11-07T00:07:27.911Z,67.04
2023-11-07T00:12:28.670Z,66.50
2023-11-07T00:17:29.674Z,67.29
2023-11-07T00:22:31.907Z,66.37
2023-11-07T00:27:32.787Z,66.40
2023-11-07T00:32:33.668Z,66.74
2023-11-07T00:37:36.153Z,66.32
2023-11-07T00:42:37.089Z,67.66
2023-11-07T00:47:38.247Z,68.14
2023-11-07T00:52:40.674Z,68.83
2023-11-07T00:57:41.555Z,68.95
2023-11-07T01:02:43.070Z,68.51
2023-11-07T01:07:46.003Z,69.38
2023-11-07T01:12:47.139Z,67.97
2023-11-07T01:17:48.380Z,68.45
2023-11-07T01:22:51.235Z,69.30
2023-11-07T01:27:53.566Z,69.39
2023-11-07T01:32:54.479Z,69.91
2023-11-07T01:38:00.132Z,69.42
2023-11-07T01:43:00.980Z,70.53
2023-11-07T01:48:01.994Z,69.83
2023-11-07T01:53:06.062Z,69.56
2023-11-07T01:58:08.708Z,68.61
2023-11-07T02:03:09.976Z,66.77
2023-11-07T02:08:12.386Z,66.79
2023-11-07T02:13:13.190Z,66.09
2023-11-07T02:18:14.369Z,65.96
2023-11-07T02:23:29.862Z,66.33
2023-11-07T02:28:31.422Z,66.26
2023-11-07T02:33:34.061Z,67.10
2023-11-07T02:38:36.270Z,66.96
2023-11-07T02:43:37.175Z,66.92
2023-11-07T02:48:38.128Z,66.36
2023-11-07T02:53:40.583Z,67.03
2023-11-07T02:58:41.498Z,65.98
2023-11-07T03:03:44.115Z,65.92
2023-11-07T03:08:46.544Z,67.15
2023-11-07T03:13:47.398Z,66.22
2023-11-07T03:18:48.390Z,66.55
2023-11-07T03:23:50.637Z,65.88
2023-11-07T03:28:51.447Z,65.88
2023-11-07T03:33:52.326Z,65.44
2023-11-07T03:38:54.808Z,66.56
2023-11-07T03:43:55.972Z,66.26
2023-11-07T03:48:57.511Z,65.97
2023-11-07T03:53:59.738Z,66.04
2023-11-07T03:59:02.691Z,66.24
2023-11-07T04:04:04.085Z,65.61
2023-11-07T04:09:06.797Z,65.48
2023-11-07T04:14:07.589Z,65.48
2023-11-07T04:19:09.258Z,65.67
2023-11-07T04:24:11.620Z,65.86
2023-11-07T04:29:12.940Z,65.66
2023-11-07T04:34:13.787Z,65.00
2023-11-07T04:39:15.917Z,64.65
2023-11-07T04:44:17.219Z,64.58
2023-11-07T04:49:18.142Z,64.60
2023-11-07T04:54:20.392Z,64.90
2023-11-07T04:59:21.233Z,64.79
2023-11-07T05:04:22.126Z,65.12
2023-11-07T05:09:26.320Z,65.63
2023-11-07T05:14:28.908Z,65.09
2023-11-07T05:19:29.805Z,70.10
2023-11-07T05:24:31.963Z,65.25
2023-11-07T05:29:32.745Z,65.44
2023-11-07T05:34:33.606Z,64.76
2023-11-07T05:39:36.077Z,65.30
2023-11-07T05:44:37.072Z,65.06
2023-11-07T05:49:37.881Z,65.35
2023-11-07T05:54:40.318Z,65.70
2023-11-07T05:59:41.158Z,64.94
2023-11-07T06:04:44.938Z,65.40
2023-11-07T06:09:47.040Z,65.32
2023-11-07T06:14:47.879Z,66.03
2023-11-07T06:19:49.077Z,65.87
2023-11-07T06:24:51.223Z,66.67
2023-11-07T06:29:52.026Z,66.47
2023-11-07T06:34:53.065Z,67.21
2023-11-07T06:39:56.344Z,66.97
2023-11-07T06:44:57.152Z,67.03
2023-11-07T06:49:58.040Z,65.61
2023-11-07T06:55:00.281Z,66.24
2023-11-07T07:00:01.191Z,65.20
2023-11-07T07:05:02.053Z,65.90
2023-11-07T07:10:04.442Z,65.73
2023-11-07T07:15:07.349Z,64.74
2023-11-07T07:20:14.007Z,64.46
2023-11-07T07:25:21.350Z,63.99
2023-11-07T07:30:23.555Z,63.77
2023-11-07T07:40:27.790Z,63.86
2023-11-07T07:45:30.836Z,63.20
2023-11-07T07:50:32.695Z,60.96
2023-11-07T07:55:37.117Z,60.92
2023-11-07T08:00:39.543Z,61.54
2023-11-07T08:05:42.115Z,61.03
2023-11-07T08:10:49.408Z,60.67
2023-11-07T08:15:51.419Z,60.09
2023-11-07T08:20:52.570Z,60.81
2023-11-07T08:25:54.721Z,60.91
2023-11-07T08:30:55.522Z,60.52
2023-11-07T08:35:56.869Z,59.80
2023-11-07T08:41:00.676Z,59.13
2023-11-07T08:46:01.502Z,58.11
2023-11-07T08:51:02.348Z,57.99
2023-11-07T08:56:04.682Z,57.74
2023-11-07T09:01:06.098Z,56.67
2023-11-07T09:06:07.494Z,57.83
2023-11-07T09:11:09.707Z,57.39
2023-11-07T09:16:11.086Z,57.42
2023-11-07T09:21:11.915Z,56.36
2023-11-07T09:26:14.053Z,56.89
2023-11-07T09:31:14.877Z,56.51
2023-11-07T09:36:16.436Z,54.58
2023-11-07T09:41:18.669Z,55.31
2023-11-07T09:46:23.222Z,54.97
2023-11-07T09:51:28.628Z,53.77
2023-11-07T09:56:32.912Z,54.42
2023-11-07T10:01:34.261Z,54.58
2023-11-07T10:06:35.404Z,54.02
2023-11-07T10:11:47.334Z,54.07
2023-11-07T10:16:52.654Z,53.00
2023-11-07T10:21:54.254Z,53.01
2023-11-07T10:27:00.402Z,53.03
2023-11-07T10:32:04.251Z,52.15
2023-11-07T10:37:06.245Z,52.24
2023-11-07T10:42:19.800Z,50.65
2023-11-07T10:47:24.164Z,49.63
2023-11-07T10:52:25.074Z,49.60
2023-11-07T10:57:36.597Z,50.11
2023-11-07T11:02:41.433Z,49.83
2023-11-07T11:07:51.111Z,47.73
2023-11-07T11:12:54.203Z,49.27
2023-11-07T11:17:59.604Z,49.47
2023-11-07T11:23:11.934Z,50.27
2023-11-07T11:28:14.083Z,50.19
2023-11-07T11:33:15.524Z,50.24
2023-11-07T11:38:21.279Z,50.38
2023-11-07T11:43:24.579Z,50.07
2023-11-07T11:48:58.767Z,48.28
2023-11-07T11:54:00.340Z,48.29
2023-11-07T11:59:08.062Z,48.80
2023-11-07T12:04:09.477Z,47.61
2023-11-07T12:09:31.274Z,47.00
2023-11-07T12:14:35.796Z,47.38
2023-11-07T12:19:36.633Z,47.32
2023-11-07T12:24:37.640Z,46.87
2023-11-07T12:29:39.766Z,47.90
2023-11-07T12:34:41.197Z,49.07
2023-11-07T12:39:43.675Z,49.94
2023-11-07T12:44:46.835Z,49.89
2023-11-07T12:49:47.844Z,49.88
2023-11-07T12:54:48.817Z,51.28
2023-11-07T13:00:00.675Z,50.98
2023-11-07T13:05:01.966Z,51.64
2023-11-07T13:10:13.717Z,51.38
2023-11-07T13:15:17.433Z,50.81
2023-11-07T13:20:18.270Z,51.50
2023-11-07T13:25:19.398Z,51.46
2023-11-07T13:30:22.913Z,50.57
2023-11-07T13:35:23.795Z,51.61
2023-11-07T13:40:24.583Z,51.96
2023-11-07T13:45:29.514Z,52.80
2023-11-07T13:50:32.421Z,53.05
2023-11-07T13:55:34.249Z,53.20
2023-11-07T14:00:36.387Z,54.21
2023-11-07T14:05:37.209Z,53.63
2023-11-07T14:10:38.790Z,53.77
2023-11-07T14:15:42.644Z,54.20
2023-11-07T14:20:43.666Z,54.95
2023-11-07T14:25:44.895Z,54.22
2023-11-07T14:30:47.455Z,53.98
2023-11-07T14:35:48.738Z,54.79
2023-11-07T14:40:51.830Z,56.41
2023-11-07T14:45:54.090Z,55.12
2023-11-07T14:50:55.311Z,56.43
2023-11-07T14:55:57.197Z,56.56
2023-11-07T15:00:59.758Z,55.90
2023-11-07T15:06:03.672Z,56.57
2023-11-07T15:11:05.190Z,57.20
2023-11-07T15:16:07.763Z,56.95
2023-11-07T15:21:08.576Z,57.44
2023-11-07T15:26:09.450Z,56.75
2023-11-07T15:31:15.022Z,57.77
2023-11-07T15:36:15.835Z,57.81
2023-11-07T15:41:16.633Z,57.16
2023-11-07T15:46:18.746Z,58.48
2023-11-07T15:51:19.758Z,59.51
2023-11-07T15:56:20.772Z,59.24
2023-11-07T16:01:27.434Z,58.37
2023-11-07T16:06:28.646Z,58.56
2023-11-07T16:11:29.438Z,58.46
2023-11-07T16:16:32.277Z,59.29
2023-11-07T16:21:33.111Z,58.96
2023-11-07T16:26:37.737Z,59.85
2023-11-07T16:31:39.859Z,59.02
2023-11-07T16:36:40.676Z,59.71
2023-11-07T16:41:41.447Z,60.77
2023-11-07T16:46:43.673Z,61.35
2023-11-07T16:51:44.559Z,61.60
2023-11-07T16:56:45.365Z,61.52
2023-11-07T17:01:47.498Z,62.94
2023-11-07T17:06:48.351Z,63.04
2023-11-07T17:11:49.157Z,62.85
2023-11-07T17:16:52.350Z,62.81
2023-11-07T17:21:54.182Z,63.05
2023-11-07T17:26:56.152Z,64.26
2023-11-07T17:31:59.172Z,63.92
2023-11-07T17:37:00.318Z,62.94
2023-11-07T17:42:01.199Z,63.84
2023-11-07T17:47:03.468Z,63.83
2023-11-07T17:52:04.305Z,62.88
2023-11-07T17:57:05.264Z,63.35
2023-11-07T18:02:08.131Z,63.50
2023-11-07T18:07:09.515Z,62.66
2023-11-07T18:12:11.212Z,63.94
2023-11-07T18:17:13.545Z,63.44
2023-11-07T18:22:14.379Z,62.74
2023-11-07T18:27:16.082Z,62.90
2023-11-07T18:32:21.480Z,62.50
2023-11-07T18:37:22.453Z,62.57
2023-11-07T18:42:27.653Z,62.27
2023-11-07T18:47:31.630Z,63.03
2023-11-07T18:52:34.010Z,62.60
2023-11-07T18:57:34.971Z,63.82
2023-11-07T19:02:37.294Z,63.79
2023-11-07T19:07:39.904Z,64.62
2023-11-07T19:12:41.233Z,64.07
2023-11-07T19:17:45.341Z,64.06
2023-11-07T19:22:46.552Z,64.81
2023-11-07T19:27:47.523Z,64.47
2023-11-07T19:32:52.566Z,64.98
2023-11-07T19:37:55.384Z,65.30
2023-11-07T19:42:57.096Z,65.89
2023-11-07T19:47:59.243Z,64.38
2023-11-07T19:53:09.515Z,65.53
2023-11-07T19:58:13.617Z,66.10
2023-11-07T20:03:16.970Z,66.10
2023-11-07T20:08:18.033Z,66.63
2023-11-07T20:13:19.297Z,67.23
2023-11-07T20:18:21.699Z,66.53
2023-11-07T20:23:25.824Z,66.29
2023-11-07T20:28:26.857Z,66.24
2023-11-07T20:33:37.565Z,67.17
2023-11-07T20:38:46.456Z,66.85
2023-11-07T20:43:47.650Z,66.83
2023-11-07T20:48:50.729Z,65.79
2023-11-07T20:53:51.632Z,65.80
2023-11-07T20:58:52.393Z,67.06
2023-11-07T21:03:56.291Z,66.74
2023-11-07T21:08:57.818Z,65.92
2023-11-07T21:13:58.723Z,66.47
2023-11-07T21:19:01.033Z,66.57
2023-11-07T21:24:01.986Z,65.92
2023-11-07T21:29:03.521Z,66.05
2023-11-07T21:34:07.762Z,65.98
2023-11-07T21:39:12.715Z,66.96
2023-11-07T21:44:20.545Z,66.51
2023-11-07T21:49:23.832Z,66.73
2023-11-07T21:54:24.800Z,66.47
2023-11-07T21:59:25.608Z,67.23
2023-11-07T22:04:27.839Z,66.59
2023-11-07T22:09:28.838Z,67.50
2023-11-07T22:14:29.702Z,67.45
2023-11-07T22:19:32.158Z,68.91
2023-11-07T22:24:33.038Z,68.15
2023-11-07T22:29:33.931Z,69.12
2023-11-07T22:34:36.109Z,69.21
2023-11-07T22:39:37.169Z,69.57
2023-11-07T22:44:38.349Z,68.61
2023-11-07T22:49:40.569Z,69.21
2023-11-07T22:54:41.423Z,69.83
2023-11-07T22:59:42.210Z,69.69
2023-11-07T23:04:45.926Z,70.25
2023-11-07T23:09:50.308Z,71.20
2023-11-07T23:14:51.751Z,71.28
2023-11-07T23:19:53.915Z,70.84
2023-11-07T23:24:54.744Z,71.04
2023-11-07T23:29:57.325Z,71.16
2023-11-07T23:34:59.598Z,70.93
2023-11-07T23:40:00.457Z,70.54
2023-11-07T23:45:01.201Z,69.96
2023-11-07T23:50:03.568Z,69.47
2023-11-07T23:55:05.264Z,69.52
